createdAt,value
2023-02-01T00:01:14.916Z,2.80
2023-02-01T00:03:41.985Z,2.82
2023-02-01T00:06:12.916Z,2.75
2023-02-01T00:08:49.046Z,2.62
2023-02-01T00:11:16.283Z,2.78
2023-02-01T00:13:45.830Z,2.81
2023-02-01T00:16:17.803Z,2.71
2023-02-01T00:18:46.225Z,2.83
2023-02-01T00:21:17.227Z,2.82
2023-02-01T00:23:44.582Z,2.68
2023-02-01T00:26:20.528Z,2.69
2023-02-01T00:28:47.556Z,2.73
2023-02-01T00:31:14.407Z,2.72
2023-02-01T00:33:41.413Z,2.65
2023-02-01T00:36:10.663Z,2.71
2023-02-01T00:38:39.025Z,2.86
2023-02-01T00:41:15.491Z,2.83
2023-02-01T00:43:43.561Z,3.04
2023-02-01T00:46:10.959Z,2.82
2023-02-01T00:48:39.130Z,3.02
2023-02-01T00:51:08.706Z,3.08
2023-02-01T00:53:35.951Z,2.93
2023-02-01T00:56:06.535Z,2.90
2023-02-01T00:58:34.763Z,2.82
2023-02-01T01:01:09.494Z,2.80
2023-02-01T01:03:39.096Z,2.87
2023-02-01T01:06:12.398Z,2.78
2023-02-01T01:08:40.688Z,2.97
2023-02-01T01:11:10.338Z,2.83
2023-02-01T01:13:37.607Z,2.75
2023-02-01T01:16:06.612Z,2.75
2023-02-01T01:18:34.889Z,2.64
2023-02-01T01:21:02.311Z,2.78
2023-02-01T01:23:29.331Z,2.88
2023-02-01T01:25:58.939Z,2.61
2023-02-01T01:28:26.375Z,2.57
2023-02-01T01:30:53.397Z,2.50
2023-02-01T01:33:20.658Z,2.71
2023-02-01T01:35:48.092Z,2.68
2023-02-01T01:38:14.975Z,2.35
2023-02-01T01:40:46.938Z,2.36
2023-02-01T01:43:17.760Z,2.37
2023-02-01T01:48:41.458Z,1.86
2023-02-01T01:51:15.396Z,2.00
2023-02-01T01:53:54.557Z,2.08
2023-02-01T01:56:21.699Z,2.20
2023-02-01T01:58:48.678Z,1.87
2023-02-01T02:01:16.215Z,1.71
2023-02-01T02:03:45.598Z,1.96
2023-02-01T02:06:34.603Z,1.87
2023-02-01T02:09:01.755Z,1.72
2023-02-01T02:11:28.646Z,1.67
2023-02-01T02:13:57.107Z,1.72
2023-02-01T02:16:33.308Z,1.88
2023-02-01T02:19:18.699Z,1.63
2023-02-01T02:22:19.010Z,1.41
2023-02-01T02:25:04.952Z,1.36
2023-02-01T02:28:00.461Z,1.04
2023-02-01T02:31:04.933Z,1.01
2023-02-01T02:33:48.880Z,0.72
2023-02-01T02:36:35.477Z,0.45
2023-02-01T02:39:09.585Z,0.41
2023-02-01T02:42:09.524Z,0.48
2023-02-01T02:45:17.095Z,0.58
2023-02-01T02:48:18.074Z,1.17
2023-02-01T02:51:06.381Z,1.33
2023-02-01T02:54:18.372Z,1.30
2023-02-01T02:57:06.667Z,1.11
2023-02-01T02:59:54.620Z,0.80
2023-02-01T03:02:41.104Z,0.89
2023-02-01T03:05:10.126Z,0.82
2023-02-01T03:07:46.291Z,0.89
2023-02-01T03:10:42.874Z,0.83
2023-02-01T03:13:18.059Z,1.01
2023-02-01T03:16:02.519Z,1.42
2023-02-01T03:18:40.720Z,0.92
2023-02-01T03:21:17.514Z,0.75
2023-02-01T03:23:47.866Z,0.74
2023-02-01T03:26:19.491Z,1.15
2023-02-01T03:28:57.232Z,0.74
2023-02-01T03:31:25.594Z,0.67
2023-02-01T03:33:52.636Z,0.77
2023-02-01T03:36:31.665Z,0.84
2023-02-01T03:42:30.331Z,1.35
2023-02-01T03:45:11.523Z,1.24
2023-02-01T03:47:44.187Z,1.26
2023-02-01T03:50:14.050Z,1.45
2023-02-01T03:52:45.652Z,1.30
2023-02-01T03:55:14.726Z,1.14
2023-02-01T03:57:47.375Z,1.19
2023-02-01T04:00:19.093Z,0.99
2023-02-01T04:02:47.982Z,1.20
2023-02-01T04:05:19.763Z,1.28
2023-02-01T04:07:49.994Z,1.24
2023-02-01T04:10:26.509Z,1.33
2023-02-01T04:12:55.697Z,1.30
2023-02-01T04:15:24.228Z,1.18
2023-02-01T04:17:51.118Z,1.13
2023-02-01T04:20:18.334Z,1.24
2023-02-01T04:22:45.541Z,1.44
2023-02-01T04:25:12.301Z,1.21
2023-02-01T04:30:10.932Z,1.45
2023-02-01T04:32:38.593Z,1.41
2023-02-01T04:35:06.255Z,1.19
2023-02-01T04:37:33.216Z,1.09
2023-02-01T04:40:00.144Z,0.88
2023-02-01T04:42:27.207Z,0.89
2023-02-01T04:44:54.141Z,1.73
2023-02-01T04:47:21.009Z,1.36
2023-02-01T04:49:47.909Z,1.17
2023-02-01T04:52:16.256Z,1.27
2023-02-01T04:54:43.201Z,1.26
2023-02-01T04:57:10.073Z,1.21
2023-02-01T04:59:37.000Z,1.22
2023-02-01T05:02:03.825Z,1.40
2023-02-01T05:04:30.801Z,1.32
2023-02-01T05:06:57.688Z,1.36
2023-02-01T05:09:24.459Z,1.32
2023-02-01T05:12:10.356Z,1.36
2023-02-01T05:14:37.396Z,1.54
2023-02-01T05:17:07.607Z,1.64
2023-02-01T05:19:34.977Z,1.70
2023-02-01T05:22:15.937Z,1.73
2023-02-01T05:24:42.931Z,1.77
2023-02-01T05:27:09.649Z,1.71
2023-02-01T05:29:36.724Z,1.75
2023-02-01T05:32:20.854Z,1.81
2023-02-01T05:34:48.700Z,1.89
2023-02-01T05:37:15.677Z,1.94
2023-02-01T05:39:42.760Z,1.93
2023-02-01T05:42:09.818Z,2.01
2023-02-01T05:44:37.067Z,2.11
2023-02-01T05:47:04.809Z,2.09
2023-02-01T05:49:31.614Z,2.06
2023-02-01T05:52:00.364Z,2.15
2023-02-01T05:54:27.585Z,2.18
2023-02-01T05:56:56.014Z,2.22
2023-02-01T05:59:23.624Z,2.32
2023-02-01T06:01:50.432Z,2.38
2023-02-01T06:04:17.338Z,2.49
2023-02-01T06:06:44.408Z,2.46
2023-02-01T06:09:11.227Z,2.40
2023-02-01T06:11:38.056Z,2.35
2023-02-01T06:14:05.015Z,2.36
2023-02-01T06:16:32.802Z,2.31
2023-02-01T06:18:59.581Z,2.41
2023-02-01T06:21:26.661Z,2.30
2023-02-01T06:23:58.681Z,2.45
2023-02-01T06:26:26.218Z,2.38
2023-02-01T06:28:53.984Z,2.33
2023-02-01T06:31:22.662Z,2.64
2023-02-01T06:33:50.035Z,2.51
2023-02-01T06:36:17.390Z,2.73
2023-02-01T06:38:44.892Z,2.90
2023-02-01T06:41:12.291Z,2.74
2023-02-01T06:43:44.309Z,2.86
2023-02-01T06:46:13.671Z,2.90
2023-02-01T06:48:41.606Z,3.07
2023-02-01T06:51:21.054Z,3.20
2023-02-01T06:53:48.261Z,2.89
2023-02-01T06:56:14.992Z,2.83
2023-02-01T06:58:41.915Z,2.85
2023-02-01T07:01:10.557Z,3.04
2023-02-01T07:03:37.753Z,3.05
2023-02-01T07:06:05.637Z,3.25
2023-02-01T07:08:34.853Z,3.10
2023-02-01T07:11:06.390Z,3.35
2023-02-01T07:13:33.709Z,3.69
2023-02-01T07:16:06.211Z,3.77
2023-02-01T07:18:33.619Z,3.66
2023-02-01T07:21:00.683Z,3.36
2023-02-01T07:23:28.311Z,3.38
2023-02-01T07:25:59.943Z,3.56
2023-02-01T07:28:27.424Z,3.90
2023-02-01T07:30:54.540Z,3.87
2023-02-01T07:33:24.241Z,3.88
2023-02-01T07:35:52.584Z,3.89
2023-02-01T07:38:20.770Z,4.01
2023-02-01T07:40:47.493Z,3.84
2023-02-01T07:43:15.950Z,4.09
2023-02-01T07:45:50.314Z,4.10
2023-02-01T07:48:17.319Z,4.07
2023-02-01T07:50:44.153Z,4.29
2023-02-01T07:53:11.075Z,3.81
2023-02-01T07:55:49.589Z,3.75
2023-02-01T07:58:19.673Z,3.70
2023-02-01T08:01:08.606Z,3.71
2023-02-01T08:03:36.679Z,3.87
2023-02-01T08:06:03.892Z,4.05
2023-02-01T08:08:30.948Z,3.91
2023-02-01T08:11:06.714Z,4.13
2023-02-01T08:13:36.435Z,4.10
2023-02-01T08:16:06.342Z,4.22
2023-02-01T08:18:33.839Z,4.11
2023-02-01T08:21:05.957Z,4.00
2023-02-01T08:23:33.459Z,4.08
2023-02-01T08:26:18.032Z,4.24
2023-02-01T08:28:54.405Z,4.28
2023-02-01T08:31:24.123Z,4.26
2023-02-01T08:33:57.727Z,4.28
2023-02-01T08:36:26.847Z,4.38
2023-02-01T08:38:54.024Z,4.42
2023-02-01T08:41:25.302Z,4.41
2023-02-01T08:43:53.114Z,4.42
2023-02-01T08:46:20.243Z,4.65
2023-02-01T08:49:47.720Z,4.55
2023-02-01T08:52:16.296Z,4.45
2023-02-01T08:54:44.846Z,4.54
2023-02-01T08:57:15.388Z,4.46
2023-02-01T08:59:42.360Z,4.56
2023-02-01T09:02:14.607Z,4.70
2023-02-01T09:04:42.365Z,4.78
2023-02-01T09:07:14.409Z,4.83
2023-02-01T09:09:41.328Z,5.04
2023-02-01T09:12:08.378Z,4.93
2023-02-01T09:14:35.414Z,5.00
2023-02-01T09:17:02.818Z,4.90
2023-02-01T09:19:29.650Z,4.97
2023-02-01T09:21:56.653Z,5.02
2023-02-01T09:24:23.803Z,5.02
2023-02-01T09:26:53.758Z,5.16
2023-02-01T09:29:21.057Z,5.13
2023-02-01T09:32:01.481Z,5.08
2023-02-01T09:34:42.159Z,5.34
2023-02-01T09:37:10.474Z,5.30
2023-02-01T09:39:38.664Z,5.36
2023-02-01T09:42:23.938Z,5.40
2023-02-01T09:45:06.050Z,5.37
2023-02-01T09:47:37.799Z,5.58
2023-02-01T09:53:30.754Z,5.83
2023-02-01T09:56:07.702Z,5.99
2023-02-01T09:58:34.832Z,6.05
2023-02-01T10:01:05.271Z,6.13
2023-02-01T10:03:37.125Z,6.18
2023-02-01T10:06:29.465Z,6.22
2023-02-01T10:09:16.154Z,6.63
2023-02-01T10:12:01.573Z,6.62
2023-02-01T10:18:01.656Z,6.61
2023-02-01T10:20:41.422Z,7.37
2023-02-01T10:23:32.914Z,7.93
2023-02-01T10:26:17.713Z,8.32
2023-02-01T10:28:49.648Z,7.45
2023-02-01T10:31:18.958Z,7.09
2023-02-01T10:34:00.726Z,6.94
2023-02-01T10:36:37.097Z,6.84
2023-02-01T10:39:07.764Z,6.74
2023-02-01T10:41:37.810Z,6.69
2023-02-01T10:44:10.994Z,6.54
2023-02-01T10:46:38.023Z,6.67
2023-02-01T10:49:14.423Z,7.44
2023-02-01T10:51:47.297Z,6.80
2023-02-01T10:54:23.515Z,6.58
2023-02-01T10:56:53.667Z,6.59
2023-02-01T10:59:25.790Z,6.30
2023-02-01T11:02:09.997Z,6.46
2023-02-01T11:04:46.192Z,6.44
2023-02-01T11:07:31.367Z,6.46
2023-02-01T11:09:59.645Z,6.44
2023-02-01T11:12:34.278Z,6.43
2023-02-01T11:15:26.262Z,6.47
2023-02-01T11:17:58.352Z,6.49
2023-02-01T11:20:41.770Z,6.44
2023-02-01T11:23:30.512Z,6.73
2023-02-01T11:26:00.310Z,7.05
2023-02-01T11:28:32.336Z,7.42
2023-02-01T11:31:05.663Z,7.45
2023-02-01T11:33:37.101Z,7.84
2023-02-01T11:36:38.125Z,7.73
2023-02-01T11:39:19.455Z,7.89
2023-02-01T11:42:12.611Z,7.36
2023-02-01T11:44:42.336Z,7.12
2023-02-01T11:47:49.256Z,7.58
2023-02-01T11:50:19.807Z,7.60
2023-02-01T11:53:11.133Z,7.35
2023-02-01T11:55:50.447Z,7.33
2023-02-01T11:58:24.335Z,7.21
2023-02-01T12:01:21.520Z,7.06
2023-02-01T12:04:08.974Z,7.22
2023-02-01T12:06:50.903Z,7.21
2023-02-01T12:09:17.889Z,7.35
2023-02-01T12:12:23.313Z,7.45
2023-02-01T12:14:59.170Z,7.51
2023-02-01T12:20:41.233Z,7.32
2023-02-01T12:23:25.433Z,7.59
2023-02-01T12:26:11.121Z,7.93
2023-02-01T12:28:47.801Z,8.11
2023-02-01T12:31:41.295Z,8.07
2023-02-01T12:34:32.737Z,8.32
2023-02-01T12:37:18.084Z,8.21
2023-02-01T12:40:11.504Z,8.01
2023-02-01T12:43:26.612Z,8.10
2023-02-01T12:46:05.189Z,8.11
2023-02-01T12:48:38.721Z,7.98
2023-02-01T12:51:20.756Z,8.23
2023-02-01T12:54:16.129Z,8.23
2023-02-01T12:56:51.649Z,8.53
2023-02-01T13:00:11.220Z,8.43
2023-02-01T13:02:48.902Z,8.09
2023-02-01T13:05:26.412Z,8.07
2023-02-01T13:08:06.232Z,8.02
2023-02-01T13:10:49.743Z,8.03
2023-02-01T13:13:50.940Z,8.19
2023-02-01T13:16:28.423Z,8.19
2023-02-01T13:19:03.372Z,8.05
2023-02-01T13:21:36.634Z,8.32
2023-02-01T13:24:04.847Z,8.15
2023-02-01T13:26:34.517Z,8.28
2023-02-01T13:29:07.986Z,7.85
2023-02-01T13:31:54.254Z,8.06
2023-02-01T13:34:54.355Z,8.30
2023-02-01T13:37:50.056Z,8.44
2023-02-01T13:40:20.315Z,8.37
2023-02-01T13:42:52.805Z,8.46
2023-02-01T13:45:24.655Z,8.35
2023-02-01T13:47:55.593Z,8.48
2023-02-01T13:50:35.469Z,8.44
2023-02-01T13:53:12.801Z,8.46
2023-02-01T13:55:42.967Z,8.35
2023-02-01T13:58:09.811Z,8.65
2023-02-01T14:00:41.584Z,8.47
2023-02-01T14:03:20.724Z,8.23
2023-02-01T14:05:57.900Z,7.81
2023-02-01T14:08:39.243Z,7.74
2023-02-01T14:11:06.523Z,7.64
2023-02-01T14:13:33.555Z,7.83
2023-02-01T14:16:06.961Z,7.81
2023-02-01T14:18:42.150Z,7.80
2023-02-01T14:21:30.838Z,7.63
2023-02-01T14:23:57.692Z,7.66
2023-02-01T14:26:46.623Z,7.98
2023-02-01T14:29:20.872Z,8.00
2023-02-01T14:32:03.985Z,7.96
2023-02-01T14:34:37.089Z,8.12
2023-02-01T14:37:08.157Z,8.12
2023-02-01T14:40:01.481Z,7.94
2023-02-01T14:42:31.347Z,7.90
2023-02-01T14:45:24.284Z,7.94
2023-02-01T14:48:06.715Z,7.91
2023-02-01T14:50:33.969Z,7.80
2023-02-01T14:53:14.788Z,7.72
2023-02-01T14:55:41.761Z,7.80
2023-02-01T14:58:20.783Z,7.77
2023-02-01T15:00:59.846Z,7.78
2023-02-01T15:07:25.474Z,7.76
2023-02-01T15:09:55.932Z,7.67
2023-02-01T15:12:31.719Z,7.68
2023-02-01T15:15:17.247Z,7.76
2023-02-01T15:18:01.305Z,7.67
2023-02-01T15:20:31.324Z,7.66
2023-02-01T15:23:02.827Z,7.54
2023-02-01T15:25:32.835Z,7.44
2023-02-01T15:27:59.753Z,7.29
2023-02-01T15:30:30.972Z,7.91
2023-02-01T15:33:10.001Z,9.48
2023-02-01T15:36:35.218Z,8.71
2023-02-01T15:39:46.867Z,7.59
2023-02-01T15:42:20.419Z,7.18
2023-02-01T15:44:54.988Z,7.24
2023-02-01T15:47:28.007Z,6.78
2023-02-01T15:50:10.304Z,6.54
2023-02-01T15:55:52.473Z,6.64
2023-02-01T15:58:27.159Z,6.68
2023-02-01T16:00:57.102Z,6.06
2023-02-01T16:03:42.319Z,5.79
2023-02-01T16:06:32.622Z,5.76
2023-02-01T16:08:59.382Z,5.61
2023-02-01T16:11:41.709Z,5.49
2023-02-01T16:17:25.607Z,5.28
2023-02-01T16:19:52.918Z,5.17
2023-02-01T16:22:20.049Z,5.13
2023-02-01T16:24:47.219Z,5.17
2023-02-01T16:27:14.480Z,5.09
2023-02-01T16:29:42.903Z,4.53
2023-02-01T16:32:19.532Z,4.70
2023-02-01T16:34:48.125Z,4.67
2023-02-01T16:37:20.529Z,4.73
2023-02-01T16:39:47.653Z,4.59
2023-02-01T16:42:16.309Z,4.65
2023-02-01T16:44:43.477Z,4.38
2023-02-01T16:47:17.987Z,4.36
2023-02-01T16:49:48.643Z,4.39
2023-02-01T16:52:22.018Z,4.40
2023-02-01T16:54:49.779Z,4.42
2023-02-01T16:57:18.829Z,4.17
2023-02-01T16:59:50.134Z,3.73
2023-02-01T17:02:21.100Z,3.65
2023-02-01T17:04:49.875Z,3.81
2023-02-01T17:07:18.771Z,3.63
2023-02-01T17:09:46.811Z,3.63
2023-02-01T17:12:25.261Z,3.64
2023-02-01T17:14:52.822Z,3.48
2023-02-01T17:17:32.695Z,3.56
2023-02-01T17:20:04.827Z,3.37
2023-02-01T17:22:31.757Z,3.09
2023-02-01T17:24:58.523Z,3.04
2023-02-01T17:27:32.203Z,3.20
2023-02-01T17:30:10.479Z,3.15
2023-02-01T17:32:37.678Z,2.83
2023-02-01T17:35:04.694Z,2.82
2023-02-01T17:37:38.839Z,2.90
2023-02-01T17:40:06.471Z,2.64
2023-02-01T17:42:34.218Z,2.59
2023-02-01T17:45:27.984Z,2.86
2023-02-01T17:47:54.784Z,2.76
2023-02-01T17:50:21.895Z,2.48
2023-02-01T17:52:48.992Z,2.82
2023-02-01T17:55:23.350Z,2.38
2023-02-01T17:57:51.332Z,2.52
2023-02-01T18:00:19.268Z,2.69
2023-02-01T18:02:46.047Z,3.01
2023-02-01T18:05:16.119Z,3.26
2023-02-01T18:07:42.851Z,3.07
2023-02-01T18:10:11.696Z,3.06
2023-02-01T18:12:39.768Z,3.28
2023-02-01T18:15:26.337Z,3.37
2023-02-01T18:18:02.591Z,3.23
2023-02-01T18:20:29.439Z,3.09
2023-02-01T18:23:05.625Z,3.21
2023-02-01T18:25:38.576Z,3.21
2023-02-01T18:28:05.534Z,2.90
2023-02-01T18:30:34.596Z,2.81
2023-02-01T18:33:02.046Z,2.90
2023-02-01T18:35:33.588Z,2.86
2023-02-01T18:38:01.064Z,2.80
2023-02-01T18:40:40.083Z,3.11
2023-02-01T18:43:07.045Z,2.92
2023-02-01T18:45:45.197Z,2.91
2023-02-01T18:48:17.313Z,3.10
2023-02-01T18:50:46.066Z,2.87
2023-02-01T18:53:17.835Z,2.61
2023-02-01T18:55:44.983Z,2.99
2023-02-01T18:58:14.892Z,2.62
2023-02-01T19:00:42.586Z,2.70
2023-02-01T19:03:12.478Z,2.56
2023-02-01T19:05:39.843Z,2.48
2023-02-01T19:08:06.851Z,2.75
2023-02-01T19:10:34.522Z,2.68
2023-02-01T19:13:01.600Z,2.52
2023-02-01T19:15:28.714Z,2.47
2023-02-01T19:17:55.822Z,2.63
2023-02-01T19:20:25.993Z,2.46
2023-02-01T19:22:54.118Z,2.26
2023-02-01T19:25:24.943Z,2.14
2023-02-01T19:27:53.128Z,2.38
2023-02-01T19:30:21.713Z,2.19
2023-02-01T19:32:50.929Z,2.49
2023-02-01T19:35:19.840Z,2.28
2023-02-01T19:37:48.581Z,2.38
2023-02-01T19:40:19.848Z,2.45
2023-02-01T19:42:47.932Z,2.53
2023-02-01T19:45:15.660Z,2.05
2023-02-01T19:47:42.872Z,2.15
2023-02-01T19:50:15.811Z,2.44
2023-02-01T19:52:42.513Z,2.37
2023-02-01T19:55:09.671Z,2.56
2023-02-01T19:57:37.756Z,2.53
2023-02-01T20:00:08.478Z,2.61
2023-02-01T20:02:34.665Z,2.74
2023-02-01T20:05:01.928Z,2.39
2023-02-01T20:07:29.111Z,2.33
2023-02-01T20:09:56.101Z,2.55
2023-02-01T20:12:27.880Z,2.69
2023-02-01T20:14:55.843Z,2.56
2023-02-01T20:17:23.197Z,2.94
2023-02-01T20:19:50.389Z,2.83
2023-02-01T20:22:17.535Z,2.91
2023-02-01T20:24:44.567Z,2.58
2023-02-01T20:27:21.231Z,2.56
2023-02-01T20:29:52.213Z,2.54
2023-02-01T20:32:25.331Z,2.81
2023-02-01T20:34:53.969Z,2.78
2023-02-01T20:37:21.557Z,3.01
2023-02-01T20:39:48.600Z,3.00
2023-02-01T20:42:16.237Z,2.78
2023-02-01T20:44:44.321Z,2.70
2023-02-01T20:47:11.470Z,2.74
2023-02-01T20:49:40.565Z,2.65
2023-02-01T20:52:09.037Z,2.73
2023-02-01T20:54:36.391Z,2.63
2023-02-01T20:57:12.428Z,2.45
2023-02-01T21:02:32.458Z,2.41
2023-02-01T21:05:14.524Z,2.50
2023-02-01T21:07:41.705Z,2.10
2023-02-01T21:10:11.237Z,2.00
2023-02-01T21:12:38.787Z,1.94
2023-02-01T21:15:09.713Z,1.79
2023-02-01T21:17:39.715Z,1.79
2023-02-01T21:20:08.606Z,1.87
2023-02-01T21:22:35.704Z,1.82
2023-02-01T21:25:02.995Z,2.37
2023-02-01T21:27:29.909Z,2.30
2023-02-01T21:30:02.743Z,2.25
2023-02-01T21:32:30.153Z,2.55
2023-02-01T21:34:59.962Z,2.32
2023-02-01T21:37:27.309Z,2.28
2023-02-01T21:39:54.398Z,1.88
2023-02-01T21:42:22.180Z,2.48
2023-02-01T21:44:51.366Z,2.29
2023-02-01T21:47:21.297Z,2.46
2023-02-01T21:49:58.672Z,2.59
2023-02-01T21:52:26.714Z,2.42
2023-02-01T21:54:59.829Z,2.33
2023-02-01T21:57:29.329Z,2.23
2023-02-01T21:59:56.626Z,2.47
2023-02-01T22:02:25.128Z,2.33
2023-02-01T22:05:00.452Z,2.21
2023-02-01T22:07:27.703Z,2.37
2023-02-01T22:10:04.721Z,2.48
2023-02-01T22:12:31.723Z,2.40
2023-02-01T22:14:58.670Z,2.57
2023-02-01T22:17:25.834Z,2.58
2023-02-01T22:19:53.363Z,2.29
2023-02-01T22:22:20.191Z,2.22
2023-02-01T22:24:47.055Z,2.20
2023-02-01T22:27:14.740Z,2.13
2023-02-01T22:29:43.013Z,1.96
2023-02-01T22:32:10.044Z,2.63
2023-02-01T22:34:37.054Z,2.39
2023-02-01T22:37:04.001Z,2.31
2023-02-01T22:39:31.048Z,2.53
2023-02-01T22:41:58.489Z,2.37
2023-02-01T22:44:28.443Z,2.38
2023-02-01T22:46:57.193Z,2.44
2023-02-01T22:49:24.079Z,2.58
2023-02-01T22:51:53.953Z,2.47
2023-02-01T22:54:22.070Z,2.38
2023-02-01T22:56:49.785Z,2.61
2023-02-01T22:59:17.260Z,2.72
2023-02-01T23:01:44.804Z,2.63
2023-02-01T23:04:14.363Z,2.78
2023-02-01T23:06:41.711Z,2.57
2023-02-01T23:09:17.459Z,2.55
2023-02-01T23:11:45.052Z,2.39
2023-02-01T23:14:13.528Z,2.08
2023-02-01T23:16:41.555Z,2.29
2023-02-01T23:19:08.624Z,1.94
2023-02-01T23:21:35.736Z,2.09
2023-02-01T23:24:05.131Z,2.07
2023-02-01T23:26:32.506Z,2.12
2023-02-01T23:29:00.427Z,2.00
2023-02-01T23:31:33.214Z,2.40
2023-02-01T23:34:01.597Z,2.03
2023-02-01T23:36:29.479Z,2.20
2023-02-01T23:38:56.757Z,2.07
2023-02-01T23:41:24.880Z,1.83
2023-02-01T23:43:58.238Z,1.99
2023-02-01T23:46:30.751Z,2.19
2023-02-01T23:48:58.408Z,2.15
2023-02-01T23:51:26.024Z,2.60
2023-02-01T23:53:53.845Z,2.57
2023-02-01T23:56:28.252Z,2.02
2023-02-01T23:58:56.765Z,1.75
